createdAt,value
2018-03-17T00:00:01.317Z,-2.4
2018-03-17T00:05:01.398Z,-2.3
2018-03-17T00:10:01.821Z,-2.3
2018-03-17T00:15:02.269Z,-2.3
2018-03-17T00:20:02.279Z,-2.3
2018-03-17T00:25:01.278Z,-2.2
2018-03-17T00:30:02.446Z,-2.2
2018-03-17T00:35:01.388Z,-2.2
2018-03-17T00:40:01.525Z,-2.4
2018-03-17T00:45:01.337Z,-2.5
2018-03-17T00:50:02.231Z,-2.5
2018-03-17T00:55:01.588Z,-2.6
2018-03-17T01:00:01.855Z,-2.6
2018-03-17T01:05:01.288Z,-2.6
2018-03-17T01:10:02.597Z,-2.6
2018-03-17T01:15:01.767Z,-2.6
2018-03-17T01:20:01.296Z,-2.6
2018-03-17T01:25:02.234Z,-2.6
2018-03-17T01:30:01.974Z,-2.8
2018-03-17T01:35:01.737Z,-2.9
2018-03-17T01:40:02.166Z,-2.9
2018-03-17T01:45:01.947Z,-2.9
2018-03-17T01:50:02.609Z,-2.6
2018-03-17T01:55:01.692Z,-2.6
2018-03-17T02:00:01.851Z,-2.6
2018-03-17T02:05:01.918Z,-2.6
2018-03-17T02:10:01.687Z,-2.6
2018-03-17T02:15:01.206Z,-2.6
2018-03-17T02:20:01.429Z,-2.6
2018-03-17T02:25:01.758Z,-2.9
2018-03-17T02:30:01.444Z,-2.9
2018-03-17T02:35:01.864Z,-2.9
2018-03-17T02:40:02.006Z,-2.9
2018-03-17T02:45:01.291Z,-2.9
2018-03-17T02:50:01.312Z,-2.9
2018-03-17T02:55:01.689Z,-2.9
2018-03-17T03:00:01.774Z,-2.9
2018-03-17T03:05:01.325Z,-2.9
2018-03-17T03:10:01.909Z,-2.7
2018-03-17T03:15:02.012Z,-2.7
2018-03-17T03:20:01.544Z,-2.7
2018-03-17T03:25:02.457Z,-2.7
2018-03-17T03:30:02.004Z,-3
2018-03-17T03:35:01.193Z,-3.1
2018-03-17T03:40:01.912Z,-3
2018-03-17T03:45:02.103Z,-3
2018-03-17T03:50:02.109Z,-3
2018-03-17T03:55:01.978Z,-3
2018-03-17T04:00:02.579Z,-3
2018-03-17T04:05:01.653Z,-3
2018-03-17T04:10:01.450Z,-3
2018-03-17T04:15:01.958Z,-3
2018-03-17T04:20:02.156Z,-2.7
2018-03-17T04:25:01.192Z,-2.8
2018-03-17T04:30:02.007Z,-2.8
2018-03-17T04:35:01.784Z,-2.8
2018-03-17T04:40:02.328Z,-2.8
2018-03-17T04:45:01.197Z,-2.9
2018-03-17T04:50:02.087Z,-2.9
2018-03-17T04:55:01.665Z,-2.9
2018-03-17T05:00:02.337Z,-2.9
2018-03-17T05:05:01.363Z,-3
2018-03-17T05:10:01.260Z,-3
2018-03-17T05:15:01.201Z,-3
2018-03-17T05:20:01.694Z,-3
2018-03-17T05:25:01.697Z,-3
2018-03-17T05:30:01.293Z,-3
2018-03-17T05:35:02.099Z,-3
2018-03-17T05:40:02.023Z,-3.1
2018-03-17T05:45:01.822Z,-3.1
2018-03-17T05:50:01.729Z,-3.1
2018-03-17T05:55:01.595Z,-3.1
2018-03-17T06:00:02.089Z,-3.1
2018-03-17T06:05:01.645Z,-3.1
2018-03-17T06:10:02.254Z,-3.1
2018-03-17T06:15:01.938Z,-3
2018-03-17T06:20:01.302Z,-3
2018-03-17T06:25:01.956Z,-3
2018-03-17T06:30:01.801Z,-3
2018-03-17T06:35:01.948Z,-3
2018-03-17T06:40:01.783Z,-3
2018-03-17T06:45:02.127Z,-3
2018-03-17T06:50:02.139Z,-3
2018-03-17T06:55:02.009Z,-2.8
2018-03-17T07:00:01.994Z,-2.8
2018-03-17T07:05:01.478Z,-2.8
2018-03-17T07:10:01.229Z,-2.9
2018-03-17T07:15:01.873Z,-2.9
2018-03-17T07:20:02.487Z,-2.8
2018-03-17T07:25:01.912Z,-2.8
2018-03-17T07:30:02.188Z,-2.8
2018-03-17T07:35:01.240Z,-2.8
2018-03-17T07:40:02.419Z,-2.8
2018-03-17T07:45:01.445Z,-2.8
2018-03-17T07:50:01.462Z,-2.8
2018-03-17T07:55:01.977Z,-2.8
2018-03-17T08:00:01.575Z,-2.7
2018-03-17T08:05:01.576Z,-2.7
2018-03-17T08:10:02.151Z,-2.7
2018-03-17T08:15:02.079Z,-2.7
2018-03-17T08:20:01.218Z,-2.7
2018-03-17T08:25:01.899Z,-2.7
2018-03-17T08:30:01.601Z,-2.7
2018-03-17T08:35:01.862Z,-2.7
2018-03-17T08:40:02.156Z,-2.7
2018-03-17T08:45:02.150Z,-2.7
2018-03-17T08:50:01.455Z,-2.7
2018-03-17T08:55:02.026Z,-2.7
2018-03-17T09:00:01.470Z,-2.7
2018-03-17T09:05:02.185Z,-2.7
2018-03-17T09:10:01.311Z,-2.7
2018-03-17T09:15:01.766Z,-2.7
2018-03-17T09:20:01.612Z,-2.7
2018-03-17T09:25:02.083Z,-2.7
2018-03-17T09:30:01.215Z,-1.5
2018-03-17T09:35:02.329Z,-1.5
2018-03-17T09:40:01.847Z,-1.5
2018-03-17T09:45:01.342Z,-1.5
2018-03-17T09:50:01.842Z,-1.5
2018-03-17T09:55:02.264Z,-1.5
2018-03-17T10:00:01.811Z,-1.5
2018-03-17T10:05:02.076Z,-1.5
2018-03-17T10:10:01.534Z,-1.5
2018-03-17T10:15:02.482Z,-1.4
2018-03-17T10:20:01.264Z,-1.4
2018-03-17T10:25:01.886Z,-1.4
2018-03-17T10:30:01.530Z,-1.4
2018-03-17T10:35:02.266Z,-1.4
2018-03-17T10:40:01.434Z,-1.8
2018-03-17T10:45:01.703Z,-1.8
2018-03-17T10:50:02.543Z,-2.2
2018-03-17T10:55:01.628Z,-2.2
2018-03-17T11:00:02.171Z,-2.2
2018-03-17T11:05:01.866Z,-1.5
2018-03-17T11:10:01.884Z,-1.4
2018-03-17T11:15:01.564Z,-1.2
2018-03-17T11:20:01.332Z,-1
2018-03-17T11:25:01.724Z,-1
2018-03-17T11:30:01.642Z,-1
2018-03-17T11:35:01.978Z,-0.8
2018-03-17T11:40:01.888Z,-0.8
2018-03-17T11:45:01.243Z,-0.8
2018-03-17T11:50:01.403Z,-0.9
2018-03-17T11:55:01.668Z,-0.9
2018-03-17T12:00:01.917Z,-0.9
2018-03-17T12:05:01.751Z,-1.2
2018-03-17T12:10:01.868Z,-1.2
2018-03-17T12:15:01.963Z,-0.8
2018-03-17T12:20:01.545Z,-0.8
2018-03-17T12:25:02.613Z,-0.8
2018-03-17T12:30:01.734Z,-0.6
2018-03-17T12:35:02.016Z,-0.6
2018-03-17T12:40:01.906Z,-0.6
2018-03-17T12:45:01.904Z,-0.6
2018-03-17T12:50:01.731Z,-0.6
2018-03-17T12:55:01.462Z,-0.6
2018-03-17T13:00:02.230Z,-0.6
2018-03-17T13:05:01.725Z,-1
2018-03-17T13:10:01.736Z,-1
2018-03-17T13:15:01.870Z,-1.2
2018-03-17T13:20:01.861Z,-1.4
2018-03-17T13:25:01.335Z,-1.4
2018-03-17T13:30:01.482Z,-1.4
2018-03-17T13:35:02.419Z,-1.4
2018-03-17T13:40:02.007Z,-1.4
2018-03-17T13:45:01.463Z,-1.4
2018-03-17T13:50:01.280Z,-1.3
2018-03-17T13:55:02.459Z,-1.3
2018-03-17T14:00:01.936Z,-1.3
2018-03-17T14:05:01.418Z,-1.3
2018-03-17T14:10:01.292Z,-0.7
2018-03-17T14:15:01.966Z,-0.7
2018-03-17T14:20:01.521Z,-0.6
2018-03-17T14:25:01.386Z,-0.6
2018-03-17T14:30:02.283Z,-1
2018-03-17T14:35:01.558Z,-1
2018-03-17T14:40:01.368Z,-1.2
2018-03-17T14:45:01.925Z,-1.2
2018-03-17T14:50:01.982Z,-1.2
2018-03-17T14:55:02.061Z,-1.2
2018-03-17T15:00:01.776Z,-1.2
2018-03-17T15:05:02.426Z,-1.2
2018-03-17T15:10:01.196Z,-1.2
2018-03-17T15:15:01.296Z,-1.8
2018-03-17T15:20:01.921Z,-1.8
2018-03-17T15:25:01.895Z,-1.8
2018-03-17T15:30:02.087Z,-1.8
2018-03-17T15:35:01.637Z,-1.8
2018-03-17T15:40:01.666Z,-1.8
2018-03-17T15:45:01.362Z,-1.8
2018-03-17T15:50:01.503Z,-1.8
2018-03-17T15:55:01.616Z,-1.8
2018-03-17T16:00:01.896Z,-1.8
2018-03-17T16:05:01.909Z,-1.9
2018-03-17T16:10:02.394Z,-1.9
2018-03-17T16:15:01.194Z,-1.9
2018-03-17T16:20:01.762Z,-2
2018-03-17T16:25:01.325Z,-2
2018-03-17T16:30:02.351Z,-2
2018-03-17T16:35:01.823Z,-2
2018-03-17T16:40:01.415Z,-2
2018-03-17T16:45:01.424Z,-2
2018-03-17T16:50:01.962Z,-2
2018-03-17T16:55:01.662Z,-2
2018-03-17T17:00:01.263Z,-2.2
2018-03-17T17:05:01.747Z,-2.2
2018-03-17T17:10:01.521Z,-2.2
2018-03-17T17:15:01.631Z,-2.2
2018-03-17T17:20:02.577Z,-2.2
2018-03-17T17:25:01.571Z,-2.2
2018-03-17T17:30:01.822Z,-2.2
2018-03-17T17:35:01.573Z,-2.2
2018-03-17T17:40:02.432Z,-2.3
2018-03-17T17:45:01.192Z,-2.3
2018-03-17T17:50:01.344Z,-2.3
2018-03-17T17:55:01.715Z,-2.4
2018-03-17T18:00:01.528Z,-2.4
2018-03-17T18:05:02.138Z,-2.4
2018-03-17T18:10:01.461Z,-2.4
2018-03-17T18:15:02.410Z,-2.5
2018-03-17T18:20:01.735Z,-2.5
2018-03-17T18:25:01.886Z,-2.4
2018-03-17T18:30:01.324Z,-2.4
2018-03-17T18:35:02.026Z,-2.4
2018-03-17T18:40:01.906Z,-2.4
2018-03-17T18:45:01.727Z,-2.4
2018-03-17T18:50:01.957Z,-2.4
2018-03-17T18:55:01.943Z,-2.5
2018-03-17T19:00:01.983Z,-2.5
2018-03-17T19:05:02.553Z,-2.4
2018-03-17T19:10:01.965Z,-2.4
2018-03-17T19:15:01.490Z,-2.5
2018-03-17T19:20:01.324Z,-2.4
2018-03-17T19:25:02.122Z,-2.4
2018-03-17T19:30:01.567Z,-2.4
2018-03-17T19:35:01.579Z,-2.4
2018-03-17T19:40:01.271Z,-2.4
2018-03-17T19:45:02.581Z,-2.5
2018-03-17T19:50:02.176Z,-2.5
2018-03-17T19:55:01.694Z,-2.5
2018-03-17T20:00:01.745Z,-2.5
2018-03-17T20:05:01.961Z,-2.5
2018-03-17T20:10:02.447Z,-2.5
2018-03-17T20:15:01.836Z,-2.5
2018-03-17T20:20:02.502Z,-2.5
2018-03-17T20:25:01.779Z,-2.5
2018-03-17T20:30:02.703Z,-2.5
2018-03-17T20:35:01.669Z,-2.6
2018-03-17T20:40:01.696Z,-2.6
2018-03-17T20:45:02.206Z,-2.6
2018-03-17T20:50:02.013Z,-2.6
2018-03-17T20:55:02.063Z,-2.6
2018-03-17T21:00:02.236Z,-2.6
2018-03-17T21:05:01.556Z,-2.6
2018-03-17T21:10:01.849Z,-2.6
2018-03-17T21:15:02.488Z,-2.6
2018-03-17T21:20:01.368Z,-2.6
2018-03-17T21:25:01.469Z,-2.6
2018-03-17T21:30:02.508Z,-2.6
2018-03-17T21:35:01.797Z,-2.6
2018-03-17T21:40:01.805Z,-2.6
2018-03-17T21:45:01.968Z,-2.6
2018-03-17T21:50:02.566Z,-2.6
2018-03-17T21:55:02.073Z,-2.6
2018-03-17T22:00:01.589Z,-2.6
2018-03-17T22:05:02.472Z,-2.6
2018-03-17T22:10:01.816Z,-2.6
2018-03-17T22:15:01.364Z,-2.6
2018-03-17T22:20:01.941Z,-2.6
2018-03-17T22:25:02.297Z,-2.6
2018-03-17T22:30:01.431Z,-2.6
2018-03-17T22:35:01.669Z,-2.6
2018-03-17T22:40:01.576Z,-2.7
2018-03-17T22:45:02.127Z,-2.7
2018-03-17T22:50:02.064Z,-2.8
2018-03-17T22:55:04.035Z,-2.8
2018-03-17T23:00:06.534Z,-2.8
2018-03-17T23:05:02.758Z,-2.9
2018-03-17T23:10:02.382Z,-2.9
2018-03-17T23:15:01.712Z,-3
2018-03-17T23:20:05.100Z,-3
2018-03-17T23:25:02.391Z,-3
2018-03-17T23:30:01.976Z,-3
2018-03-17T23:35:03.328Z,-3
2018-03-17T23:40:04.694Z,-3
2018-03-17T23:45:02.482Z,-3
2018-03-17T23:50:03.721Z,-3
2018-03-17T23:55:02.181Z,-3.1
